createdAt,value
2018-12-01T00:02:23.614Z,6.90
2018-12-01T00:04:51.963Z,6.90
2018-12-01T00:07:20.522Z,6.90
2018-12-01T00:09:48.821Z,6.90
2018-12-01T00:12:17.102Z,7.00
2018-12-01T00:14:45.408Z,7.00
2018-12-01T00:17:13.698Z,6.90
2018-12-01T00:19:44.320Z,7.00
2018-12-01T00:22:12.974Z,7.00
2018-12-01T00:24:41.283Z,7.00
2018-12-01T00:27:09.594Z,7.10
2018-12-01T00:29:38.290Z,7.00
2018-12-01T00:32:06.606Z,7.00
2018-12-01T00:34:34.906Z,7.00
2018-12-01T00:37:03.205Z,7.00
2018-12-01T00:39:31.481Z,7.00
2018-12-01T00:41:59.779Z,6.90
2018-12-01T00:44:28.106Z,7.00
2018-12-01T00:46:56.423Z,7.00
2018-12-01T00:49:26.324Z,7.00
2018-12-01T00:51:55.591Z,6.90
2018-12-01T00:54:23.867Z,6.90
2018-12-01T00:56:52.174Z,6.90
2018-12-01T00:59:20.478Z,6.90
2018-12-01T01:01:48.824Z,6.90
2018-12-01T01:04:17.102Z,6.80
2018-12-01T01:06:46.492Z,6.80
2018-12-01T01:09:14.778Z,6.70
2018-12-01T01:11:43.154Z,6.70
2018-12-01T01:14:11.498Z,6.70
2018-12-01T01:16:40.194Z,6.70
2018-12-01T01:19:08.495Z,6.60
2018-12-01T01:21:37.367Z,6.60
2018-12-01T01:24:05.653Z,6.60
2018-12-01T01:26:33.935Z,6.60
2018-12-01T01:29:02.361Z,6.60
2018-12-01T01:31:30.649Z,6.60
2018-12-01T01:33:58.947Z,6.50
2018-12-01T01:36:27.651Z,6.50
2018-12-01T01:38:55.937Z,6.60
2018-12-01T01:41:24.225Z,6.60
2018-12-01T01:43:53.074Z,6.60
2018-12-01T01:46:21.366Z,6.60
2018-12-01T01:48:49.668Z,6.60
2018-12-01T01:51:18.854Z,6.60
2018-12-01T01:53:47.378Z,6.60
2018-12-01T01:56:15.698Z,6.60
2018-12-01T01:58:44.874Z,6.50
2018-12-01T02:01:13.166Z,6.60
2018-12-01T02:03:41.542Z,6.60
2018-12-01T02:06:09.897Z,6.60
2018-12-01T02:08:38.862Z,6.60
2018-12-01T02:11:07.158Z,6.60
2018-12-01T02:13:35.822Z,6.60
2018-12-01T02:16:04.158Z,6.50
2018-12-01T02:18:32.451Z,6.50
2018-12-01T02:21:01.256Z,6.50
2018-12-01T02:23:29.555Z,6.50
2018-12-01T02:25:57.877Z,6.50
2018-12-01T02:28:27.482Z,6.50
2018-12-01T02:30:55.798Z,6.40
2018-12-01T02:33:24.096Z,6.50
2018-12-01T02:35:52.462Z,6.40
2018-12-01T02:38:20.755Z,6.40
2018-12-01T02:40:49.060Z,6.40
2018-12-01T02:43:17.974Z,6.40
2018-12-01T02:45:57.486Z,6.30
2018-12-01T02:48:25.847Z,6.30
2018-12-01T02:50:54.133Z,6.30
2018-12-01T02:53:22.433Z,6.30
2018-12-01T02:55:50.826Z,6.30
2018-12-01T02:58:19.110Z,6.20
2018-12-01T03:00:47.414Z,6.20
2018-12-01T03:03:15.987Z,6.20
2018-12-01T03:05:44.268Z,6.20
2018-12-01T03:08:12.553Z,6.10
2018-12-01T03:10:41.751Z,6.20
2018-12-01T03:13:10.501Z,6.10
2018-12-01T03:15:38.922Z,6.20
2018-12-01T03:18:07.265Z,6.20
2018-12-01T03:20:35.601Z,6.10
2018-12-01T03:23:03.902Z,6.20
2018-12-01T03:25:32.745Z,6.20
2018-12-01T03:28:01.038Z,6.20
2018-12-01T03:30:29.349Z,6.20
2018-12-01T03:32:57.902Z,6.20
2018-12-01T03:35:26.178Z,6.10
2018-12-01T03:37:54.477Z,6.20
2018-12-01T03:40:23.124Z,6.20
2018-12-01T03:42:52.566Z,6.30
2018-12-01T03:45:22.389Z,6.30
2018-12-01T03:47:50.754Z,6.30
2018-12-01T03:50:23.583Z,6.30
2018-12-01T03:52:52.967Z,6.40
2018-12-01T03:55:28.357Z,6.40
2018-12-01T03:57:57.232Z,6.40
2018-12-01T04:00:27.985Z,6.50
2018-12-01T04:02:57.341Z,6.60
2018-12-01T04:05:25.646Z,6.60
2018-12-01T04:07:53.950Z,6.60
2018-12-01T04:10:22.658Z,6.70
2018-12-01T04:12:51.082Z,6.60
2018-12-01T04:15:19.423Z,6.70
2018-12-01T04:17:48.010Z,6.70
2018-12-01T04:20:16.328Z,6.70
2018-12-01T04:22:44.815Z,6.80
2018-12-01T04:25:13.430Z,6.90
2018-12-01T04:27:41.713Z,6.90
2018-12-01T04:30:15.682Z,6.90
2018-12-01T04:32:44.901Z,6.90
2018-12-01T04:35:16.746Z,7.00
2018-12-01T04:37:45.854Z,7.00
2018-12-01T04:40:14.154Z,7.00
2018-12-01T04:42:42.937Z,7.00
2018-12-01T04:45:11.254Z,7.00
2018-12-01T04:47:39.613Z,7.00
2018-12-01T04:50:09.569Z,7.00
2018-12-01T04:52:37.916Z,7.10
2018-12-01T04:55:08.157Z,7.10
2018-12-01T04:57:37.061Z,7.10
2018-12-01T05:00:08.346Z,7.10
2018-12-01T05:02:37.406Z,7.10
2018-12-01T05:05:07.758Z,7.10
2018-12-01T05:07:36.754Z,7.10
2018-12-01T05:10:07.518Z,7.20
2018-12-01T05:12:35.826Z,7.20
2018-12-01T05:15:05.957Z,7.20
2018-12-01T05:17:34.239Z,7.20
2018-12-01T05:20:02.567Z,7.20
2018-12-01T05:22:30.905Z,7.20
2018-12-01T05:24:59.190Z,7.10
2018-12-01T05:27:27.462Z,7.20
2018-12-01T05:29:56.121Z,7.20
2018-12-01T05:32:24.413Z,7.20
2018-12-01T05:34:52.742Z,7.30
2018-12-01T05:37:21.062Z,7.30
2018-12-01T05:39:49.341Z,7.30
2018-12-01T05:42:17.682Z,7.20
2018-12-01T05:44:46.317Z,7.20
2018-12-01T05:47:14.617Z,7.30
2018-12-01T05:49:42.918Z,7.20
2018-12-01T05:52:12.321Z,7.20
2018-12-01T05:54:40.598Z,7.30
2018-12-01T05:57:08.901Z,7.30
2018-12-01T05:59:37.618Z,7.30
2018-12-01T06:02:06.342Z,7.30
2018-12-01T06:04:34.614Z,7.30
2018-12-01T06:07:03.518Z,7.40
2018-12-01T06:09:32.745Z,7.40
2018-12-01T06:12:03.326Z,7.40
2018-12-01T06:14:32.109Z,7.40
2018-12-01T06:17:02.498Z,7.40
2018-12-01T06:19:30.798Z,7.40
2018-12-01T06:21:59.181Z,7.50
2018-12-01T06:24:27.475Z,7.50
2018-12-01T06:26:55.757Z,7.50
2018-12-01T06:29:24.066Z,7.50
2018-12-01T06:31:52.798Z,7.50
2018-12-01T06:34:21.074Z,7.50
2018-12-01T06:36:51.093Z,7.50
2018-12-01T06:39:19.497Z,7.50
2018-12-01T06:41:48.868Z,7.50
2018-12-01T06:44:19.319Z,7.50
2018-12-01T06:46:48.591Z,7.50
2018-12-01T06:49:16.894Z,7.60
2018-12-01T06:51:45.456Z,7.60
2018-12-01T06:54:14.526Z,7.60
2018-12-01T06:56:43.289Z,7.60
2018-12-01T06:59:12.376Z,7.60
2018-12-01T07:01:41.618Z,7.60
2018-12-01T07:04:11.045Z,7.50
2018-12-01T07:06:39.351Z,7.50
2018-12-01T07:09:09.673Z,7.50
2018-12-01T07:11:38.644Z,7.50
2018-12-01T07:14:09.271Z,7.50
2018-12-01T07:16:38.769Z,7.50
2018-12-01T07:19:18.830Z,7.50
2018-12-01T07:21:47.151Z,7.40
2018-12-01T07:24:15.487Z,7.40
2018-12-01T07:26:44.225Z,7.30
2018-12-01T07:29:13.449Z,7.30
2018-12-01T07:31:41.729Z,7.30
2018-12-01T07:34:10.063Z,7.30
2018-12-01T07:36:38.415Z,7.30
2018-12-01T07:39:08.325Z,7.20
2018-12-01T07:41:37.022Z,7.20
2018-12-01T07:44:05.586Z,7.20
2018-12-01T07:46:33.870Z,7.20
2018-12-01T07:49:02.457Z,7.20
2018-12-01T07:51:31.784Z,7.20
2018-12-01T07:54:00.086Z,7.20
2018-12-01T07:56:28.383Z,7.20
2018-12-01T07:58:56.662Z,7.20
2018-12-01T08:01:24.942Z,7.20
2018-12-01T08:03:53.517Z,7.20
2018-12-01T08:06:21.794Z,7.20
2018-12-01T08:08:50.073Z,7.20
2018-12-01T08:11:19.073Z,7.20
2018-12-01T08:13:47.365Z,7.20
2018-12-01T08:16:16.407Z,7.10
2018-12-01T08:18:45.261Z,7.20
2018-12-01T08:21:13.636Z,7.10
2018-12-01T08:23:41.942Z,7.10
2018-12-01T08:26:10.694Z,7.10
2018-12-01T08:28:38.984Z,7.10
2018-12-01T08:31:07.261Z,7.10
2018-12-01T08:33:36.263Z,7.10
2018-12-01T08:36:04.550Z,7.10
2018-12-01T08:38:32.826Z,7.00
2018-12-01T08:41:02.502Z,7.00
2018-12-01T08:43:30.797Z,7.10
2018-12-01T08:45:59.069Z,7.10
2018-12-01T08:48:27.370Z,7.10
2018-12-01T08:50:58.049Z,7.10
2018-12-01T08:53:26.366Z,7.20
2018-12-01T08:55:55.341Z,7.30
2018-12-01T08:58:23.638Z,7.30
2018-12-01T09:00:51.954Z,7.40
2018-12-01T09:03:23.005Z,7.40
2018-12-01T09:05:51.976Z,7.50
2018-12-01T09:08:20.310Z,7.60
2018-12-01T09:10:48.682Z,7.70
2018-12-01T09:13:17.024Z,7.70
2018-12-01T09:15:45.310Z,7.70
2018-12-01T09:18:14.117Z,7.80
2018-12-01T09:20:42.397Z,7.80
2018-12-01T09:23:10.739Z,7.80
2018-12-01T09:25:39.150Z,7.80
2018-12-01T09:28:08.334Z,7.90
2018-12-01T09:30:38.225Z,7.90
2018-12-01T09:33:06.694Z,8.00
2018-12-01T09:35:35.002Z,7.90
2018-12-01T09:38:03.316Z,8.00
2018-12-01T09:43:06.391Z,8.00
2018-12-01T09:45:34.671Z,8.00
2018-12-01T09:48:03.024Z,8.00
2018-12-01T09:50:31.330Z,8.10
2018-12-01T09:52:59.604Z,8.20
2018-12-01T09:55:30.620Z,8.20
2018-12-01T09:57:59.610Z,8.20
2018-12-01T10:00:29.946Z,8.30
2018-12-01T10:02:58.886Z,8.30
2018-12-01T10:05:27.202Z,8.30
2018-12-01T10:07:55.490Z,8.40
2018-12-01T10:10:24.139Z,8.40
2018-12-01T10:12:54.747Z,8.40
2018-12-01T10:15:26.422Z,8.40
2018-12-01T10:17:55.419Z,8.40
2018-12-01T10:20:28.106Z,8.40
2018-12-01T10:22:57.397Z,8.40
2018-12-01T10:25:25.815Z,8.40
2018-12-01T10:27:54.159Z,8.40
2018-12-01T10:30:23.194Z,8.40
2018-12-01T10:32:52.095Z,8.40
2018-12-01T10:35:26.681Z,8.50
2018-12-01T10:38:00.646Z,8.40
2018-12-01T10:40:29.614Z,8.50
2018-12-01T10:42:57.906Z,8.50
2018-12-01T10:45:26.209Z,8.40
2018-12-01T10:47:54.842Z,8.40
2018-12-01T10:50:23.989Z,8.40
2018-12-01T10:52:53.452Z,8.40
2018-12-01T10:55:25.996Z,8.40
2018-12-01T10:58:03.169Z,8.50
2018-12-01T11:00:37.238Z,8.50
2018-12-01T11:03:06.954Z,8.50
2018-12-01T11:05:36.470Z,8.60
2018-12-01T11:08:07.256Z,8.60
2018-12-01T11:10:35.580Z,8.60
2018-12-01T11:13:03.899Z,8.60
2018-12-01T11:15:32.689Z,8.70
2018-12-01T11:18:00.982Z,8.70
2018-12-01T11:20:29.270Z,8.70
2018-12-01T11:22:58.192Z,8.70
2018-12-01T11:25:26.090Z,8.70
2018-12-01T11:27:54.384Z,8.70
2018-12-01T11:30:23.275Z,8.70
2018-12-01T11:32:51.606Z,8.70
2018-12-01T11:35:19.906Z,8.80
2018-12-01T11:37:49.036Z,8.70
2018-12-01T11:40:18.277Z,8.80
2018-12-01T11:42:46.823Z,8.80
2018-12-01T11:45:16.399Z,8.80
2018-12-01T11:47:44.789Z,8.80
2018-12-01T11:50:17.390Z,8.80
2018-12-01T11:52:46.646Z,8.90
2018-12-01T11:55:16.811Z,8.90
2018-12-01T12:00:47.299Z,8.90
2018-12-01T12:03:15.698Z,9.00
2018-12-01T12:05:44.027Z,9.00
2018-12-01T12:08:20.237Z,9.00
2018-12-01T12:10:48.550Z,9.10
2018-12-01T12:13:16.891Z,9.10
2018-12-01T12:15:46.016Z,9.10
2018-12-01T12:18:14.767Z,9.10
2018-12-01T12:20:43.170Z,9.10
2018-12-01T12:23:11.480Z,9.10
2018-12-01T12:25:40.457Z,9.10
2018-12-01T12:28:08.226Z,9.10
2018-12-01T12:30:36.646Z,9.10
2018-12-01T12:33:05.134Z,9.20
2018-12-01T12:35:33.446Z,9.20
2018-12-01T12:38:01.823Z,9.20
2018-12-01T12:40:30.558Z,9.20
2018-12-01T12:42:59.681Z,9.30
2018-12-01T12:45:28.036Z,9.30
2018-12-01T12:47:57.374Z,9.30
2018-12-01T12:50:26.114Z,9.30
2018-12-01T12:52:55.235Z,9.30
2018-12-01T12:55:25.362Z,9.30
2018-12-01T12:57:53.678Z,9.40
2018-12-01T13:00:22.802Z,9.40
2018-12-01T13:03:00.410Z,9.40
2018-12-01T13:05:45.590Z,9.40
2018-12-01T13:08:15.454Z,9.40
2018-12-01T13:10:43.906Z,9.40
2018-12-01T13:13:12.279Z,9.40
2018-12-01T13:15:40.616Z,9.50
2018-12-01T13:18:10.190Z,9.40
2018-12-01T13:20:38.625Z,9.50
2018-12-01T13:23:07.322Z,9.40
2018-12-01T13:25:36.806Z,9.40
2018-12-01T13:28:14.110Z,9.40
2018-12-01T13:30:44.085Z,9.50
2018-12-01T13:33:12.386Z,9.40
2018-12-01T13:35:40.971Z,9.40
2018-12-01T13:38:09.317Z,9.40
2018-12-01T13:40:37.621Z,9.40
2018-12-01T14:07:06.722Z,9.50
2018-12-01T14:09:35.058Z,9.20
2018-12-01T14:12:03.353Z,9.10
2018-12-01T14:14:32.217Z,9.10
2018-12-01T14:17:00.514Z,9.10
2018-12-01T14:19:28.813Z,9.10
2018-12-01T14:21:57.658Z,9.10
2018-12-01T14:24:25.939Z,9.10
2018-12-01T14:26:54.251Z,9.10
2018-12-01T14:29:23.156Z,9.10
2018-12-01T14:31:51.451Z,9.10
2018-12-01T14:34:19.768Z,9.10
2018-12-01T14:36:48.854Z,9.10
2018-12-01T14:39:17.129Z,9.00
2018-12-01T14:41:45.419Z,9.00
2018-12-01T14:44:13.732Z,9.00
2018-12-01T14:46:42.065Z,9.00
2018-12-01T14:49:10.365Z,9.00
2018-12-01T14:51:38.758Z,9.00
2018-12-01T14:54:07.062Z,8.90
2018-12-01T14:56:35.355Z,9.00
2018-12-01T14:59:04.222Z,8.90
2018-12-01T15:01:32.512Z,8.90
2018-12-01T15:04:00.831Z,8.90
2018-12-01T15:06:29.199Z,8.90
2018-12-01T15:08:57.499Z,8.90
2018-12-01T15:11:25.806Z,8.90
2018-12-01T15:13:54.867Z,8.90
2018-12-01T15:16:23.174Z,8.90
2018-12-01T15:18:51.680Z,8.90
2018-12-01T15:21:20.116Z,8.90
2018-12-01T15:23:48.572Z,8.90
2018-12-01T15:26:16.872Z,8.90
2018-12-01T15:28:45.189Z,8.90
2018-12-01T15:31:40.405Z,8.80
2018-12-01T15:34:14.535Z,8.90
2018-12-01T15:36:50.049Z,8.80
2018-12-01T15:39:39.979Z,8.80
2018-12-01T15:42:13.887Z,8.70
2018-12-01T15:44:45.801Z,8.70
2018-12-01T15:47:15.081Z,8.70
2018-12-01T15:49:45.741Z,8.70
2018-12-01T15:52:14.699Z,8.70
2018-12-01T15:54:44.680Z,8.70
2018-12-01T15:57:13.535Z,8.70
2018-12-01T15:59:41.950Z,8.70
2018-12-01T16:02:10.272Z,8.80
2018-12-01T16:04:38.978Z,8.80
2018-12-01T16:07:07.343Z,8.80
2018-12-01T16:09:35.650Z,8.90
2018-12-01T16:12:04.506Z,8.90
2018-12-01T16:14:32.806Z,9.00
2018-12-01T16:17:01.118Z,9.00
2018-12-01T16:19:29.694Z,9.00
2018-12-01T16:21:57.988Z,8.90
2018-12-01T16:24:26.418Z,8.80
2018-12-01T16:26:54.775Z,8.80
2018-12-01T16:29:23.606Z,8.70
2018-12-01T16:31:52.464Z,8.70
2018-12-01T16:34:21.233Z,8.60
2018-12-01T16:36:50.417Z,8.60
2018-12-01T16:39:18.865Z,8.60
2018-12-01T16:41:47.522Z,8.50
2018-12-01T16:44:15.911Z,8.50
2018-12-01T16:49:46.154Z,8.50
2018-12-01T16:52:15.058Z,8.50
2018-12-01T16:54:43.494Z,8.50
2018-12-01T16:57:11.931Z,8.60
2018-12-01T16:59:40.771Z,8.50
2018-12-01T17:02:09.066Z,8.60
2018-12-01T17:04:37.370Z,8.60
2018-12-01T17:07:06.447Z,8.60
2018-12-01T17:09:34.754Z,8.60
2018-12-01T17:12:03.761Z,8.60
2018-12-01T17:14:32.423Z,8.60
2018-12-01T17:17:00.722Z,8.60
2018-12-01T17:19:29.026Z,8.60
2018-12-01T17:21:57.706Z,8.60
2018-12-01T17:24:25.992Z,8.60
2018-12-01T17:26:54.274Z,8.60
2018-12-01T17:29:22.879Z,8.60
2018-12-01T17:31:51.458Z,8.60
2018-12-01T17:34:19.741Z,8.60
2018-12-01T17:36:48.426Z,8.60
2018-12-01T17:39:16.723Z,8.60
2018-12-01T17:41:45.038Z,8.60
2018-12-01T17:44:13.747Z,8.60
2018-12-01T17:46:42.382Z,8.60
2018-12-01T17:49:10.668Z,8.60
2018-12-01T17:51:39.503Z,8.70
2018-12-01T17:54:10.795Z,8.70
2018-12-01T17:56:39.102Z,8.70
2018-12-01T17:59:07.994Z,8.70
2018-12-01T18:01:36.270Z,8.70
2018-12-01T18:04:04.570Z,8.70
2018-12-01T18:06:34.257Z,8.70
2018-12-01T18:09:02.562Z,8.70
2018-12-01T18:11:30.849Z,8.70
2018-12-01T18:13:59.179Z,8.70
2018-12-01T18:16:27.463Z,8.80
2018-12-01T18:18:55.738Z,8.70
2018-12-01T18:21:24.412Z,8.80
2018-12-01T18:23:52.724Z,8.80
2018-12-01T18:26:21.046Z,8.80
2018-12-01T18:28:51.034Z,8.80
2018-12-01T18:31:27.294Z,8.90
2018-12-01T18:34:01.811Z,8.90
2018-12-01T18:36:30.085Z,8.90
2018-12-01T18:38:58.379Z,8.90
2018-12-01T18:41:26.750Z,8.90
2018-12-01T18:43:55.055Z,8.90
2018-12-01T18:46:23.347Z,8.90
2018-12-01T18:48:51.677Z,8.90
2018-12-01T18:51:19.995Z,8.90
2018-12-01T18:53:48.279Z,9.00
2018-12-01T18:56:16.674Z,9.00
2018-12-01T18:58:44.962Z,9.00
2018-12-01T19:01:13.251Z,9.00
2018-12-01T19:03:42.040Z,9.00
2018-12-01T19:06:10.332Z,9.00
2018-12-01T19:08:39.264Z,9.00
2018-12-01T19:11:08.578Z,9.00
2018-12-01T19:13:36.885Z,9.00
2018-12-01T19:16:05.706Z,9.10
2018-12-01T19:18:34.497Z,9.00
2018-12-01T19:21:03.003Z,9.10
2018-12-01T19:23:31.298Z,9.10
2018-12-01T19:26:00.145Z,9.10
2018-12-01T19:28:28.450Z,9.10
2018-12-01T19:30:56.734Z,9.10
2018-12-01T19:33:25.473Z,9.10
2018-12-01T19:35:54.403Z,9.20
2018-12-01T20:04:10.445Z,9.30
2018-12-01T20:06:39.373Z,9.30
2018-12-01T20:09:09.219Z,9.30
2018-12-01T20:11:37.636Z,9.40
2018-12-01T20:14:09.379Z,9.40
2018-12-01T20:16:39.574Z,9.40
2018-12-01T20:19:08.530Z,9.40
2018-12-01T20:21:37.023Z,9.40
2018-12-01T20:24:07.207Z,9.40
2018-12-01T20:26:36.458Z,9.40
2018-12-01T20:29:05.130Z,9.40
2018-12-01T20:31:33.990Z,9.40
2018-12-01T20:34:02.919Z,9.50
2018-12-01T20:36:38.597Z,9.50
2018-12-01T20:39:20.063Z,9.50
2018-12-01T20:41:48.813Z,9.50
2018-12-01T20:44:17.972Z,9.50
2018-12-01T20:46:47.011Z,9.60
2018-12-01T20:49:16.254Z,9.50
2018-12-01T20:51:44.635Z,9.60
2018-12-01T20:54:26.239Z,9.60
2018-12-01T20:56:58.588Z,9.60
2018-12-01T20:59:27.346Z,9.60
2018-12-01T21:01:55.765Z,9.60
2018-12-01T21:04:24.123Z,9.60
2018-12-01T21:06:52.750Z,9.60
2018-12-01T21:09:21.099Z,9.70
2018-12-01T21:19:23.474Z,9.60
2018-12-01T21:21:51.757Z,9.70
2018-12-01T21:24:21.131Z,9.70
2018-12-01T21:26:49.866Z,9.70
2018-12-01T21:29:18.198Z,9.70
2018-12-01T21:31:46.569Z,9.70
2018-12-01T21:34:14.890Z,9.70
2018-12-01T21:36:43.229Z,9.80
2018-12-01T21:39:11.526Z,9.80
2018-12-01T21:41:39.840Z,9.80
2018-12-01T21:44:08.193Z,9.80
2018-12-01T21:46:36.495Z,9.80
2018-12-01T21:49:05.559Z,9.80
2018-12-01T21:51:33.844Z,9.80
2018-12-01T21:54:02.133Z,9.80
2018-12-01T21:56:31.005Z,9.90
2018-12-01T21:58:59.338Z,9.90
2018-12-01T22:01:27.652Z,9.90
2018-12-01T22:03:56.501Z,9.90
2018-12-01T22:06:25.142Z,9.90
2018-12-01T22:08:53.418Z,9.90
2018-12-01T22:11:21.778Z,9.90
2018-12-01T22:13:50.070Z,9.90
2018-12-01T22:16:18.352Z,9.90
2018-12-01T22:18:46.721Z,9.90
2018-12-01T22:21:15.014Z,9.90
2018-12-01T22:23:43.314Z,9.90
2018-12-01T22:26:12.037Z,9.90
2018-12-01T22:28:40.655Z,9.90
2018-12-01T22:31:09.004Z,9.90
2018-12-01T22:33:37.422Z,9.90
2018-12-01T22:36:05.705Z,9.90
2018-12-01T22:38:34.478Z,9.90
2018-12-01T22:41:02.823Z,9.90
2018-12-01T22:43:31.110Z,9.90
2018-12-01T22:45:59.386Z,9.90
2018-12-01T22:48:28.200Z,9.90
2018-12-01T22:50:56.499Z,9.90
2018-12-01T22:53:24.802Z,9.90
2018-12-01T22:55:53.226Z,9.90
2018-12-01T22:58:21.887Z,9.90
2018-12-01T23:00:54.385Z,9.90
2018-12-01T23:03:23.341Z,9.90
2018-12-01T23:05:51.625Z,9.90
2018-12-01T23:08:24.452Z,9.90
2018-12-01T23:10:53.094Z,10.00
2018-12-01T23:13:21.391Z,9.90
2018-12-01T23:15:50.019Z,10.00
2018-12-01T23:18:19.661Z,10.00
2018-12-01T23:20:48.663Z,10.00
2018-12-01T23:23:17.086Z,10.00
2018-12-01T23:25:45.626Z,10.00
2018-12-01T23:28:13.930Z,10.00
2018-12-01T23:30:45.878Z,9.90
2018-12-01T23:33:17.750Z,10.00
2018-12-01T23:35:46.455Z,9.90
2018-12-01T23:38:14.773Z,9.90
2018-12-01T23:40:43.078Z,9.90
2018-12-01T23:43:11.502Z,9.90
2018-12-01T23:45:41.072Z,9.90
2018-12-01T23:48:09.381Z,9.90
2018-12-01T23:50:39.397Z,9.90
2018-12-01T23:53:09.253Z,10.00
2018-12-01T23:55:37.554Z,9.90
2018-12-01T23:58:06.229Z,9.90
